createdAt,value
2019-02-16T19:40:14.752Z,96170.31
2019-02-16T19:43:15.290Z,96173.47
2019-02-16T19:49:38.386Z,96153.52
2019-02-16T19:52:22.206Z,96162.50
2019-02-16T19:55:12.510Z,96159.56
2019-02-16T19:58:04.044Z,96160.66
2019-02-16T20:00:45.215Z,96156.25
2019-02-16T20:03:35.157Z,96160.00
2019-02-16T20:06:29.481Z,96160.00
2019-02-16T20:09:23.643Z,96158.58
2019-02-16T20:12:21.246Z,96146.72
2019-02-16T20:15:11.499Z,96159.30
2019-02-16T20:18:06.294Z,96160.98
2019-02-16T20:20:57.874Z,96168.59
2019-02-16T20:23:54.104Z,96161.82
2019-02-16T20:26:45.593Z,96161.78
2019-02-16T20:29:32.953Z,96162.73
2019-02-16T20:32:24.520Z,96162.05
2019-02-16T20:35:31.121Z,96163.59
2019-02-16T20:38:28.983Z,96171.04
2019-02-16T20:41:12.121Z,96171.22
2019-02-16T20:43:57.572Z,96164.88
2019-02-16T20:46:35.563Z,96168.00
2019-02-16T20:49:30.003Z,96164.06
2019-02-16T20:52:18.245Z,96162.16
2019-02-16T20:55:09.822Z,96157.59
2019-02-16T20:58:04.345Z,96154.95
2019-02-16T21:00:52.053Z,96161.27
2019-02-16T21:03:42.559Z,96159.86
2019-02-16T21:06:29.958Z,96155.38
2019-02-16T21:09:14.880Z,96151.58
2019-02-16T21:12:01.862Z,96158.68
2019-02-16T21:15:08.446Z,96149.84
2019-02-16T21:17:59.844Z,96149.44
2019-02-16T21:20:50.528Z,96146.59
2019-02-16T21:23:48.218Z,96150.87
2019-02-16T21:26:36.620Z,96152.69
2019-02-16T21:29:14.686Z,96146.38
2019-02-16T21:32:16.287Z,96157.38
2019-02-16T21:35:23.040Z,96151.15
2019-02-16T21:38:14.671Z,96151.73
2019-02-16T21:41:08.924Z,96149.67
2019-02-16T21:43:58.941Z,96148.91
2019-02-16T21:46:50.439Z,96159.37
2019-02-16T21:49:40.770Z,96156.50
2019-02-16T21:52:23.776Z,96149.86
2019-02-16T21:55:21.155Z,96154.80
2019-02-16T21:58:08.365Z,96144.45
2019-02-16T22:01:03.191Z,96147.50
2019-02-16T22:03:53.430Z,96140.20
2019-02-16T22:07:00.033Z,96139.92
2019-02-16T22:09:45.157Z,96130.64
2019-02-16T22:12:41.365Z,96131.27
2019-02-16T22:15:13.935Z,96129.34
2019-02-16T22:17:46.589Z,96128.51
2019-02-16T22:20:19.163Z,96129.53
2019-02-16T22:22:51.870Z,96137.70
2019-02-16T22:25:24.455Z,96128.47
2019-02-16T22:27:57.320Z,96125.95
2019-02-16T22:30:30.289Z,96133.92
2019-02-16T22:33:03.927Z,96125.50
2019-02-16T22:35:36.672Z,96134.12
2019-02-16T22:38:12.319Z,96139.52
2019-02-16T22:40:45.017Z,96135.82
2019-02-16T22:43:17.720Z,96134.29
2019-02-16T22:45:50.455Z,96142.45
2019-02-16T22:48:25.815Z,96138.97
2019-02-16T22:50:58.501Z,96131.75
2019-02-16T22:53:31.259Z,96141.20
2019-02-16T22:56:03.857Z,96130.22
2019-02-16T22:58:36.514Z,96124.70
2019-02-16T23:01:09.450Z,96132.33
2019-02-16T23:03:43.715Z,96133.16
2019-02-16T23:06:16.275Z,96135.91
2019-02-16T23:08:49.063Z,96135.70
2019-02-16T23:11:21.715Z,96142.83
2019-02-16T23:13:54.358Z,96140.26
2019-02-16T23:16:27.048Z,96141.44
2019-02-16T23:18:59.685Z,96147.97
2019-02-16T23:21:32.312Z,96140.73
2019-02-16T23:24:04.982Z,96136.30
2019-02-16T23:26:37.609Z,96144.49
2019-02-16T23:29:09.533Z,96140.41
2019-02-16T23:31:45.269Z,96141.91
2019-02-16T23:34:17.899Z,96141.58
2019-02-16T23:36:50.629Z,96137.35
2019-02-16T23:39:23.319Z,96139.81
2019-02-16T23:41:55.958Z,96135.96
2019-02-16T23:44:28.560Z,96136.89
2019-02-16T23:47:01.261Z,96143.87
2019-02-16T23:49:33.892Z,96136.27
2019-02-16T23:52:06.767Z,96139.89
2019-02-16T23:54:39.416Z,96144.22
2019-02-16T23:57:12.019Z,96140.95
2019-02-16T23:59:44.730Z,96141.73
